Time;durP1;ratioP1;P1;durP2;ratioP2;P2;SDS_P1;SDS_P2;PMS_P1;PMS_P2;Temp;Humidity;BMP_temperature;BMP_pressure;BME280_temperature;BME280_humidity;BME280_pressure;Samples;Min_cycle;Max_cycle;Signal;HPM_P1;HPM_P2
2021/08/21 00:02:25;;;;;;;16.90;13.55;;;16.10;99.90;;;;;;5092435;28;20139;-64
2021/08/21 00:04:51;;;;;;;18.10;14.68;;;16.00;99.90;;;;;;5093385;28;20473;-64
2021/08/21 00:07:17;;;;;;;14.45;12.93;;;16.00;99.90;;;;;;5092184;28;20478;-64
2021/08/21 00:09:45;;;;;;;17.40;14.82;;;16.00;99.90;;;;;;5094940;28;20060;-64
2021/08/21 00:12:11;;;;;;;15.48;13.50;;;15.90;99.90;;;;;;5094630;28;20056;-64
2021/08/21 00:14:38;;;;;;;14.88;13.38;;;15.90;99.90;;;;;;5095331;28;20101;-64
2021/08/21 00:17:06;;;;;;;19.20;12.07;;;15.90;99.90;;;;;;5093253;28;20127;-64
2021/08/21 00:19:32;;;;;;;19.50;15.75;;;15.90;99.90;;;;;;5095353;28;20164;-64
2021/08/21 00:21:57;;;;;;;15.27;13.73;;;15.90;99.90;;;;;;5092094;28;20040;-64
2021/08/21 00:24:23;;;;;;;18.77;15.68;;;15.90;99.90;;;;;;5091924;28;20046;-64
2021/08/21 00:26:49;;;;;;;21.52;17.08;;;15.80;99.90;;;;;;5094376;28;20043;-64
2021/08/21 00:29:15;;;;;;;18.08;14.82;;;15.80;99.90;;;;;;5098626;28;20043;-64
2021/08/21 00:31:41;;;;;;;18.13;13.98;;;15.80;99.90;;;;;;5096767;28;20081;-64
2021/08/21 00:34:07;;;;;;;14.55;12.93;;;15.80;99.90;;;;;;5096586;28;20439;-64
2021/08/21 00:36:34;;;;;;;15.90;14.20;;;15.80;99.90;;;;;;5095958;28;20039;-64
2021/08/21 00:38:59;;;;;;;20.92;16.85;;;15.80;99.90;;;;;;5096916;28;20036;-64
2021/08/21 00:41:25;;;;;;;21.92;17.42;;;15.80;99.90;;;;;;5098035;28;20047;-64
2021/08/21 00:43:50;;;;;;;20.27;16.90;;;15.70;99.90;;;;;;5098741;28;20035;-64
2021/08/21 00:46:17;;;;;;;16.67;14.82;;;15.70;99.90;;;;;;5095782;28;20043;-64
2021/08/21 00:48:43;;;;;;;19.20;15.15;;;15.70;99.90;;;;;;5096857;28;20683;-64
2021/08/21 00:51:08;;;;;;;20.08;15.88;;;15.70;99.90;;;;;;5096116;28;20036;-64
2021/08/21 00:53:34;;;;;;;22.50;18.50;;;15.70;99.90;;;;;;5096074;28;20112;-64
2021/08/21 00:56:01;;;;;;;24.00;18.65;;;15.70;99.90;;;;;;5094661;28;20031;-64
2021/08/21 00:58:28;;;;;;;21.50;17.67;;;15.70;99.90;;;;;;5094801;27;20040;-64
2021/08/21 01:00:56;;;;;;;21.33;18.88;;;15.70;99.90;;;;;;5096743;28;20034;-64
2021/08/21 01:03:22;;;;;;;26.75;20.00;;;15.70;99.90;;;;;;5097667;27;20401;-64
2021/08/21 01:05:47;;;;;;;22.08;19.75;;;15.70;99.90;;;;;;5092507;28;20040;-64
2021/08/21 01:08:16;;;;;;;22.92;20.15;;;15.80;99.90;;;;;;5095243;28;20028;-64
2021/08/21 01:10:41;;;;;;;21.88;19.65;;;15.80;99.90;;;;;;5094983;28;20118;-64
2021/08/21 01:13:08;;;;;;;24.08;18.70;;;15.80;99.90;;;;;;5096243;28;20829;-64
2021/08/21 01:15:33;;;;;;;22.15;19.05;;;15.80;99.90;;;;;;5096766;27;20058;-64
2021/08/21 01:17:59;;;;;;;23.65;19.30;;;15.80;99.90;;;;;;5093872;28;20032;-64
2021/08/21 01:20:26;;;;;;;25.33;20.33;;;15.80;99.90;;;;;;5095061;27;20054;-64
2021/08/21 01:22:52;;;;;;;23.73;20.00;;;15.80;99.90;;;;;;5097359;28;20043;-64
2021/08/21 01:25:23;;;;;;;21.05;18.48;;;15.80;99.90;;;;;;5099026;28;20039;-64
2021/08/21 01:27:49;;;;;;;24.38;20.40;;;15.80;99.90;;;;;;5095428;28;20039;-64
2021/08/21 01:30:15;;;;;;;23.85;19.40;;;15.80;99.90;;;;;;5100198;28;20028;-64
2021/08/21 01:32:41;;;;;;;23.67;19.35;;;15.70;99.90;;;;;;5096998;28;20062;-64
2021/08/21 01:35:08;;;;;;;21.98;18.80;;;15.80;99.90;;;;;;5098247;28;20138;-64
2021/08/21 01:37:33;;;;;;;20.33;18.23;;;15.80;99.90;;;;;;5093138;28;20043;-65
2021/08/21 01:40:00;;;;;;;20.15;17.38;;;15.80;99.90;;;;;;5092779;28;20044;-64
2021/08/21 01:42:26;;;;;;;22.05;17.92;;;15.80;99.90;;;;;;5096432;28;20044;-64
2021/08/21 01:44:52;;;;;;;23.98;18.10;;;15.70;99.90;;;;;;5094238;28;20504;-64
2021/08/21 01:47:19;;;;;;;21.73;18.55;;;15.70;99.90;;;;;;5098915;27;20043;-64
2021/08/21 01:49:52;;;;;;;23.35;18.70;;;15.70;99.90;;;;;;5094822;28;20451;-64
2021/08/21 01:52:17;;;;;;;23.20;19.30;;;15.80;99.90;;;;;;5095426;28;20424;-64
2021/08/21 01:54:43;;;;;;;25.02;19.85;;;15.80;99.90;;;;;;5094426;28;20035;-64
2021/08/21 01:57:08;;;;;;;19.52;17.42;;;15.80;99.90;;;;;;5095697;27;20398;-64
2021/08/21 01:59:35;;;;;;;25.10;19.90;;;15.80;99.90;;;;;;5097191;28;20389;-64
2021/08/21 02:02:02;;;;;;;23.13;19.60;;;15.80;99.90;;;;;;5094916;28;20043;-64
2021/08/21 02:04:28;;;;;;;25.13;20.42;;;15.80;99.90;;;;;;5094099;28;20035;-64
2021/08/21 02:06:54;;;;;;;23.70;20.58;;;15.80;99.90;;;;;;5096109;28;21002;-64
2021/08/21 02:09:23;;;;;;;25.80;19.02;;;15.80;99.90;;;;;;5129072;27;20442;-64
2021/08/21 02:11:51;;;;;;;22.55;19.98;;;15.80;99.90;;;;;;5096420;28;20086;-64
2021/08/21 02:14:18;;;;;;;22.00;19.42;;;15.80;99.90;;;;;;5095298;28;20039;-65
2021/08/21 02:16:46;;;;;;;23.48;19.95;;;15.80;99.90;;;;;;5097448;28;20110;-64
2021/08/21 02:19:12;;;;;;;22.17;18.55;;;15.80;99.90;;;;;;5096084;28;20040;-64
2021/08/21 02:21:38;;;;;;;24.83;21.05;;;15.80;99.90;;;;;;5094560;28;20047;-64
2021/08/21 02:24:06;;;;;;;22.77;18.33;;;15.70;99.90;;;;;;5093136;28;20036;-64
2021/08/21 02:26:32;;;;;;;28.65;21.40;;;15.70;99.90;;;;;;5094651;28;20039;-64
2021/08/21 02:28:57;;;;;;;25.40;20.65;;;15.70;99.90;;;;;;5094415;27;20028;-64
2021/08/21 02:31:25;;;;;;;26.75;21.08;;;15.70;99.90;;;;;;5099288;27;20436;-64
2021/08/21 02:33:50;;;;;;;23.83;21.05;;;15.70;99.90;;;;;;5104628;27;20088;-64
2021/08/21 02:36:17;;;;;;;27.73;22.08;;;15.60;99.90;;;;;;5103113;27;20432;-64
2021/08/21 02:38:45;;;;;;;23.27;18.90;;;15.60;99.90;;;;;;5105722;28;20110;-64
2021/08/21 02:41:11;;;;;;;24.20;20.92;;;15.60;99.90;;;;;;5102147;28;20048;-64
2021/08/21 02:43:37;;;;;;;24.23;20.15;;;15.50;99.90;;;;;;5099962;28;20036;-64
2021/08/21 02:46:03;;;;;;;31.98;22.02;;;15.50;99.90;;;;;;5103495;28;20040;-64
2021/08/21 02:48:29;;;;;;;28.17;21.77;;;15.50;99.90;;;;;;5104211;28;20100;-65
2021/08/21 02:50:55;;;;;;;22.55;18.55;;;15.40;99.90;;;;;;5103045;28;20466;-64
2021/08/21 02:53:21;;;;;;;25.27;21.15;;;15.40;99.90;;;;;;5101949;28;20088;-64
2021/08/21 02:55:46;;;;;;;23.65;21.02;;;15.40;99.90;;;;;;5098847;27;20048;-64
2021/08/21 02:58:12;;;;;;;26.48;22.70;;;15.40;99.90;;;;;;5097534;28;20032;-64
2021/08/21 03:00:38;;;;;;;28.60;23.35;;;15.40;99.90;;;;;;5105972;28;20042;-64
2021/08/21 03:03:03;;;;;;;28.52;23.35;;;15.40;99.90;;;;;;5100972;28;20550;-65
2021/08/21 03:05:29;;;;;;;26.65;22.92;;;15.40;99.90;;;;;;5103957;27;20038;-64
2021/08/21 03:07:56;;;;;;;25.45;22.17;;;15.40;99.90;;;;;;5101342;28;20087;-64
2021/08/21 03:10:21;;;;;;;31.73;25.88;;;15.40;99.90;;;;;;5099520;28;20394;-65
2021/08/21 03:12:47;;;;;;;30.77;24.92;;;15.40;99.90;;;;;;5101949;28;20036;-65
2021/08/21 03:15:13;;;;;;;25.02;20.98;;;15.40;99.90;;;;;;5102277;28;20032;-65
2021/08/21 03:17:39;;;;;;;34.08;24.15;;;15.30;99.90;;;;;;5099651;28;20042;-65
2021/08/21 03:20:05;;;;;;;28.25;21.77;;;15.30;99.90;;;;;;5102193;28;20043;-64
2021/08/21 03:22:31;;;;;;;25.73;22.85;;;15.20;99.90;;;;;;5106776;28;20118;-65
2021/08/21 03:24:56;;;;;;;25.15;22.42;;;15.20;99.90;;;;;;5103238;28;20111;-65
2021/08/21 03:27:22;;;;;;;22.58;20.20;;;15.20;99.90;;;;;;5102088;28;20032;-65
2021/08/21 03:29:48;;;;;;;23.77;21.38;;;15.20;99.90;;;;;;5096586;28;20032;-64
2021/08/21 03:32:16;;;;;;;27.52;23.13;;;15.20;99.90;;;;;;5104181;28;20051;-64
2021/08/21 03:34:43;;;;;;;33.17;25.95;;;15.10;99.90;;;;;;5102183;28;20500;-65
2021/08/21 03:37:09;;;;;;;27.00;23.05;;;15.10;99.90;;;;;;5104717;28;20064;-65
2021/08/21 03:39:35;;;;;;;31.33;25.67;;;15.10;99.90;;;;;;5097012;28;20039;-65
2021/08/21 03:42:01;;;;;;;25.98;22.95;;;15.00;99.90;;;;;;5098399;28;20036;-64
2021/08/21 03:44:27;;;;;;;21.45;16.30;;;15.00;99.90;;;;;;5101157;28;20039;-64
2021/08/21 03:46:52;;;;;;;16.33;14.73;;;15.00;99.90;;;;;;5101018;28;20081;-64
2021/08/21 03:49:18;;;;;;;22.08;17.50;;;14.90;99.90;;;;;;5103585;28;20122;-65
2021/08/21 03:51:45;;;;;;;22.75;18.38;;;14.80;99.90;;;;;;5099405;28;20132;-65
2021/08/21 03:54:10;;;;;;;22.88;19.05;;;14.70;99.90;;;;;;5101471;28;20115;-65
2021/08/21 03:56:36;;;;;;;19.33;17.33;;;14.60;99.90;;;;;;5098677;28;20097;-65
2021/08/21 03:59:02;;;;;;;20.98;17.27;;;14.60;99.90;;;;;;5102244;28;20028;-64
2021/08/21 04:01:27;;;;;;;26.52;22.27;;;14.60;99.90;;;;;;5100095;28;20504;-65
2021/08/21 04:03:53;;;;;;;22.83;18.75;;;14.60;99.90;;;;;;5100012;28;20028;-64
2021/08/21 04:06:19;;;;;;;27.58;22.02;;;14.60;99.90;;;;;;5106440;28;20135;-64
2021/08/21 04:08:45;;;;;;;32.15;25.33;;;14.60;99.90;;;;;;5109963;27;20459;-64
2021/08/21 04:11:11;;;;;;;28.38;24.08;;;14.70;99.90;;;;;;5103237;28;20118;-65
2021/08/21 04:13:36;;;;;;;27.83;22.38;;;14.80;99.90;;;;;;5107158;27;20039;-64
2021/08/21 04:16:03;;;;;;;25.95;21.27;;;14.70;99.90;;;;;;5105231;28;20358;-64
2021/08/21 04:18:28;;;;;;;25.20;21.58;;;14.70;99.90;;;;;;5107493;28;20036;-64
2021/08/21 04:20:54;;;;;;;23.67;20.33;;;14.70;99.90;;;;;;5107723;27;20548;-64
2021/08/21 04:23:19;;;;;;;31.83;23.65;;;14.80;99.90;;;;;;5105268;28;20036;-65
2021/08/21 04:25:45;;;;;;;30.15;23.77;;;14.80;99.90;;;;;;5105787;27;20034;-65
2021/08/21 04:28:11;;;;;;;38.10;28.48;;;14.80;99.90;;;;;;5107499;27;20039;-65
2021/08/21 04:30:37;;;;;;;55.03;33.90;;;14.80;99.90;;;;;;5104394;27;20061;-64
2021/08/21 04:33:03;;;;;;;73.10;35.88;;;14.90;99.90;;;;;;5108709;28;20048;-65
2021/08/21 04:35:29;;;;;;;74.65;37.88;;;14.90;99.90;;;;;;5108344;27;20109;-65
2021/08/21 04:37:54;;;;;;;75.82;37.63;;;15.00;99.90;;;;;;5101528;28;20715;-65
2021/08/21 04:40:21;;;;;;;116.53;41.42;;;15.00;99.90;;;;;;5104965;27;20443;-64
2021/08/21 04:42:46;;;;;;;131.55;41.78;;;15.00;99.90;;;;;;5103640;27;20039;-64
2021/08/21 04:45:13;;;;;;;182.65;44.60;;;15.00;99.90;;;;;;5103889;27;20562;-65
2021/08/21 04:47:39;;;;;;;308.73;57.35;;;15.00;99.90;;;;;;5105589;27;20104;-65
2021/08/21 04:50:06;;;;;;;146.90;41.20;;;15.00;99.90;;;;;;5104247;28;20489;-65
2021/08/21 04:52:31;;;;;;;226.65;45.55;;;15.00;99.90;;;;;;5102230;27;20047;-65
2021/08/21 04:54:57;;;;;;;211.43;46.47;;;15.00;99.90;;;;;;5104228;28;20032;-65
2021/08/21 04:57:23;;;;;;;288.55;50.95;;;15.10;99.90;;;;;;5103102;28;20032;-65
2021/08/21 04:59:49;;;;;;;286.15;52.00;;;15.10;99.90;;;;;;5101958;28;20036;-65
2021/08/21 05:02:15;;;;;;;233.25;40.63;;;15.10;99.90;;;;;;5102173;28;20485;-64
2021/08/21 05:04:40;;;;;;;196.82;43.22;;;15.10;99.90;;;;;;5106927;28;20046;-65
2021/08/21 05:07:06;;;;;;;278.75;43.78;;;15.10;99.90;;;;;;5099496;28;21103;-65
2021/08/21 05:09:32;;;;;;;183.85;46.08;;;15.10;99.90;;;;;;5102305;28;20427;-65
2021/08/21 05:11:58;;;;;;;223.60;46.65;;;15.20;99.90;;;;;;5102089;28;20144;-65
2021/08/21 05:14:23;;;;;;;219.95;41.70;;;15.20;99.90;;;;;;5096948;28;20090;-65
2021/08/21 05:16:50;;;;;;;198.32;40.78;;;15.20;99.90;;;;;;5095816;28;20495;-65
2021/08/21 05:19:29;;;;;;;242.75;54.10;;;15.20;99.90;;;;;;5100813;27;20107;-65
2021/08/21 05:22:08;;;;;;;127.00;40.33;;;15.30;99.90;;;;;;5098652;27;20146;-65
2021/08/21 05:24:34;;;;;;;132.18;36.05;;;15.30;99.90;;;;;;5096157;27;20064;-65
2021/08/21 05:27:00;;;;;;;145.80;44.47;;;15.30;99.90;;;;;;5096024;28;20704;-65
2021/08/21 05:29:25;;;;;;;109.05;40.63;;;15.30;99.90;;;;;;5093923;27;20749;-64
2021/08/21 05:31:51;;;;;;;126.03;34.13;;;15.40;99.90;;;;;;5097592;27;20497;-65
2021/08/21 05:34:17;;;;;;;203.32;41.80;;;15.40;99.90;;;;;;5094386;28;20444;-65
2021/08/21 05:36:43;;;;;;;278.10;44.50;;;15.40;99.90;;;;;;5094986;28;20028;-65
2021/08/21 05:39:13;;;;;;;146.20;32.75;;;15.50;99.90;;;;;;5093953;27;20047;-65
2021/08/21 05:41:39;;;;;;;257.40;39.00;;;15.50;99.90;;;;;;5096133;27;20139;-65
2021/08/21 05:44:06;;;;;;;206.90;35.83;;;15.60;99.90;;;;;;5093628;28;20553;-65
2021/08/21 05:46:32;;;;;;;146.98;29.83;;;15.60;99.90;;;;;;5097823;27;20032;-65
2021/08/21 05:48:57;;;;;;;154.45;32.45;;;15.60;99.90;;;;;;5096614;27;20382;-65
2021/08/21 05:51:23;;;;;;;180.57;30.05;;;15.60;99.90;;;;;;5099230;27;20036;-65
2021/08/21 05:53:48;;;;;;;153.05;35.88;;;15.70;99.90;;;;;;5097832;28;20048;-65
2021/08/21 05:56:14;;;;;;;136.45;34.42;;;15.70;99.90;;;;;;5099825;27;20570;-65
2021/08/21 05:58:40;;;;;;;64.65;28.85;;;15.80;99.90;;;;;;5093905;28;20059;-65
2021/08/21 06:01:05;;;;;;;89.07;28.80;;;15.80;99.90;;;;;;5097175;27;20044;-65
2021/08/21 06:03:31;;;;;;;96.88;29.92;;;15.90;99.90;;;;;;5095960;28;20382;-65
2021/08/21 06:05:56;;;;;;;120.50;33.42;;;15.80;99.90;;;;;;5093455;28;20680;-65
2021/08/21 06:08:22;;;;;;;91.28;26.58;;;15.90;99.90;;;;;;5097241;27;20036;-65
2021/08/21 06:10:48;;;;;;;74.47;28.30;;;15.90;99.90;;;;;;5094359;28;20031;-65
2021/08/21 06:13:14;;;;;;;89.18;25.77;;;16.00;99.90;;;;;;5096516;28;20041;-65
2021/08/21 06:15:39;;;;;;;98.82;32.15;;;16.00;99.90;;;;;;5099781;28;20088;-65
2021/08/21 06:18:05;;;;;;;44.72;27.10;;;16.10;99.90;;;;;;5098041;28;20043;-65
2021/08/21 06:20:31;;;;;;;56.65;28.45;;;16.20;99.90;;;;;;5096205;27;20086;-65
2021/08/21 06:22:56;;;;;;;54.47;25.80;;;16.20;99.90;;;;;;5093975;28;20043;-65
2021/08/21 06:25:22;;;;;;;43.47;26.38;;;16.30;99.90;;;;;;5096163;28;20039;-65
2021/08/21 06:27:49;;;;;;;59.05;27.60;;;16.40;99.90;;;;;;5097604;27;20038;-65
2021/08/21 06:30:15;;;;;;;52.30;26.52;;;16.40;99.90;;;;;;5099868;28;20146;-65
2021/08/21 06:32:40;;;;;;;72.05;29.58;;;16.50;99.90;;;;;;5097542;28;20537;-65
2021/08/21 06:35:08;;;;;;;74.38;33.55;;;16.70;99.90;;;;;;5103998;27;20055;-65
2021/08/21 06:37:33;;;;;;;55.90;28.17;;;16.70;99.90;;;;;;5098263;28;20408;-65
2021/08/21 06:39:59;;;;;;;145.43;30.30;;;16.80;99.90;;;;;;5099244;27;20064;-65
2021/08/21 06:42:25;;;;;;;45.67;26.08;;;16.90;99.90;;;;;;5095554;27;20388;-65
2021/08/21 06:44:50;;;;;;;36.80;25.75;;;17.00;99.90;;;;;;5096671;28;20047;-65
2021/08/21 06:47:17;;;;;;;38.50;25.30;;;17.10;99.90;;;;;;5093820;28;20273;-65
2021/08/21 06:49:44;;;;;;;42.83;25.98;;;17.20;99.90;;;;;;5096080;28;20042;-65
2021/08/21 06:52:10;;;;;;;39.55;26.35;;;17.20;99.90;;;;;;5093552;28;20154;-65
2021/08/21 06:54:35;;;;;;;59.30;28.65;;;17.30;99.90;;;;;;5095609;28;21568;-65
2021/08/21 06:57:01;;;;;;;66.82;26.17;;;17.30;99.90;;;;;;5096919;28;20043;-70
2021/08/21 06:59:27;;;;;;;111.32;31.80;;;17.40;99.90;;;;;;5094569;28;20119;-70
2021/08/21 07:01:52;;;;;;;39.80;27.88;;;17.50;99.90;;;;;;5092440;28;20118;-70
2021/08/21 07:04:18;;;;;;;101.57;33.80;;;17.50;99.90;;;;;;5095838;27;20531;-70
2021/08/21 07:06:44;;;;;;;44.08;29.45;;;17.50;99.90;;;;;;5098282;27;20089;-70
2021/08/21 07:09:10;;;;;;;38.33;30.88;;;17.50;99.90;;;;;;5092964;28;20508;-70
2021/08/21 07:11:36;;;;;;;42.20;29.63;;;17.60;99.90;;;;;;5093783;28;20486;-70
2021/08/21 07:14:03;;;;;;;44.60;28.10;;;17.60;99.90;;;;;;5093893;27;20071;-70
2021/08/21 07:16:28;;;;;;;37.08;27.63;;;17.70;99.90;;;;;;5094213;28;20058;-70
2021/08/21 07:18:54;;;;;;;37.08;28.48;;;17.70;99.90;;;;;;5094962;28;20071;-70
2021/08/21 07:21:21;;;;;;;49.65;31.40;;;17.70;99.90;;;;;;5096594;28;20117;-70
2021/08/21 07:23:47;;;;;;;39.70;32.25;;;17.70;99.90;;;;;;5090879;28;20048;-70
2021/08/21 07:26:13;;;;;;;61.50;33.40;;;17.80;99.90;;;;;;5094645;28;20043;-70
2021/08/21 07:28:39;;;;;;;49.40;34.65;;;17.90;99.90;;;;;;5092532;28;20085;-68
2021/08/21 07:31:05;;;;;;;40.70;31.70;;;17.90;99.90;;;;;;5092600;28;20040;-68
2021/08/21 07:33:31;;;;;;;41.22;34.03;;;18.00;99.90;;;;;;5096098;28;20561;-68
2021/08/21 07:35:57;;;;;;;37.88;32.38;;;18.00;99.90;;;;;;5094677;28;20052;-68
2021/08/21 07:38:23;;;;;;;39.63;34.42;;;18.10;99.90;;;;;;5095526;28;20035;-68
2021/08/21 07:40:49;;;;;;;38.50;33.15;;;18.10;99.90;;;;;;5096365;28;20055;-68
2021/08/21 07:43:15;;;;;;;37.90;32.50;;;18.20;99.90;;;;;;5091079;28;20406;-68
2021/08/21 07:45:42;;;;;;;40.10;34.47;;;18.20;99.90;;;;;;5097267;28;20039;-68
2021/08/21 07:48:08;;;;;;;39.50;33.08;;;18.30;99.90;;;;;;5089676;28;20127;-68
2021/08/21 07:50:34;;;;;;;40.35;33.20;;;18.40;99.90;;;;;;5090826;28;20110;-68
2021/08/21 07:52:59;;;;;;;38.63;34.42;;;18.40;99.90;;;;;;5095036;28;20040;-68
2021/08/21 07:55:25;;;;;;;35.75;31.88;;;18.50;99.90;;;;;;5094417;28;20127;-68
2021/08/21 07:57:51;;;;;;;40.40;34.72;;;18.60;99.90;;;;;;5095070;28;20114;-68
2021/08/21 08:00:17;;;;;;;37.25;33.28;;;18.60;99.90;;;;;;5092290;28;20393;-68
2021/08/21 08:02:45;;;;;;;39.38;34.55;;;18.70;99.90;;;;;;5094105;28;20046;-68
2021/08/21 08:05:12;;;;;;;40.58;34.63;;;18.80;99.90;;;;;;5092509;28;20055;-68
2021/08/21 08:07:37;;;;;;;39.70;35.53;;;18.80;99.90;;;;;;5091902;28;20032;-68
2021/08/21 08:10:04;;;;;;;36.67;32.90;;;18.80;99.90;;;;;;5091036;28;20075;-68
2021/08/21 08:12:29;;;;;;;36.65;32.83;;;18.80;99.90;;;;;;5090757;28;20180;-68
2021/08/21 08:14:55;;;;;;;37.88;33.88;;;18.90;99.90;;;;;;5091305;28;20182;-68
2021/08/21 08:17:21;;;;;;;36.00;32.25;;;18.90;99.90;;;;;;5090093;28;20039;-68
2021/08/21 08:19:46;;;;;;;36.78;33.15;;;18.90;99.90;;;;;;5091954;28;20078;-68
2021/08/21 08:22:13;;;;;;;36.53;32.78;;;19.00;99.90;;;;;;5090592;28;20036;-67
2021/08/21 08:24:39;;;;;;;34.88;31.38;;;19.00;99.90;;;;;;5092713;28;20089;-67
2021/08/21 08:27:05;;;;;;;35.95;32.30;;;19.10;99.90;;;;;;5090840;28;20035;-68
2021/08/21 08:29:30;;;;;;;38.92;34.90;;;19.10;99.90;;;;;;5091495;28;20035;-68
2021/08/21 08:31:56;;;;;;;36.28;32.55;;;19.20;99.90;;;;;;5092065;28;20123;-68
2021/08/21 08:34:22;;;;;;;37.58;33.58;;;19.20;99.90;;;;;;5094991;28;20504;-67
2021/08/21 08:36:49;;;;;;;34.10;30.50;;;19.30;99.90;;;;;;5095428;28;20113;-68
2021/08/21 08:39:15;;;;;;;34.15;30.52;;;19.40;99.90;;;;;;5095613;28;20056;-68
2021/08/21 08:41:43;;;;;;;34.63;31.00;;;19.40;99.90;;;;;;5092639;28;20051;-68
2021/08/21 08:44:12;;;;;;;35.10;31.42;;;19.50;99.90;;;;;;5094566;28;20033;-68
2021/08/21 08:46:39;;;;;;;32.50;29.13;;;19.60;99.90;;;;;;5090678;28;20487;-67
2021/08/21 08:49:05;;;;;;;34.90;31.30;;;19.70;99.90;;;;;;5095873;28;20455;-68
2021/08/21 08:51:35;;;;;;;33.42;30.02;;;19.80;99.90;;;;;;5098458;28;20043;-68
2021/08/21 08:54:01;;;;;;;31.08;27.88;;;19.90;99.90;;;;;;5097865;28;20486;-68
2021/08/21 08:56:27;;;;;;;32.42;29.02;;;19.80;99.90;;;;;;5098846;28;20035;-67
2021/08/21 08:58:53;;;;;;;33.08;29.55;;;19.80;99.90;;;;;;5100824;28;20073;-66
2021/08/21 09:01:20;;;;;;;29.50;26.45;;;20.00;99.90;;;;;;5097504;28;20027;-66
2021/08/21 09:03:46;;;;;;;33.40;30.17;;;20.00;99.90;;;;;;5098308;28;20050;-66
2021/08/21 09:06:13;;;;;;;31.73;28.52;;;20.10;99.90;;;;;;5099012;28;20054;-66
2021/08/21 09:08:40;;;;;;;31.15;27.90;;;20.20;99.90;;;;;;5094734;27;20043;-66
2021/08/21 09:11:21;;;;;;;30.95;27.75;;;20.40;99.90;;;;;;5096676;27;20036;-66
2021/08/21 09:13:47;;;;;;;28.80;25.95;;;20.70;99.90;;;;;;5094270;27;20051;-67
2021/08/21 09:16:25;;;;;;;27.45;24.65;;;20.90;99.90;;;;;;5097460;28;20074;-66
2021/08/21 09:19:11;;;;;;;27.48;24.75;;;21.20;99.90;;;;;;5093185;28;20533;-66
2021/08/21 09:22:01;;;;;;;23.75;21.45;;;21.40;99.90;;;;;;5094921;28;20047;-66
2021/08/21 09:24:28;;;;;;;25.20;22.70;;;21.60;99.90;;;;;;5094883;28;20040;-66
2021/08/21 09:26:54;;;;;;;28.17;25.48;;;21.90;99.90;;;;;;5096551;28;20044;-66
2021/08/21 09:29:26;;;;;;;25.08;22.67;;;22.00;99.90;;;;;;5095443;28;20036;-66
2021/08/21 09:32:04;;;;;;;24.88;22.40;;;22.20;99.90;;;;;;5096509;28;20478;-66
2021/08/21 09:34:30;;;;;;;23.25;20.98;;;22.10;99.90;;;;;;5096783;27;20038;-66
2021/08/21 09:36:56;;;;;;;23.73;21.33;;;22.30;99.90;;;;;;5092389;28;20047;-66
2021/08/21 09:39:34;;;;;;;22.00;19.63;;;22.30;99.90;;;;;;5098197;27;20726;-66
2021/08/21 09:42:03;;;;;;;20.25;17.88;;;22.10;99.90;;;;;;5096897;28;20043;-66
2021/08/21 09:44:40;;;;;;;18.60;16.70;;;22.10;99.90;;;;;;5096394;27;20979;-66
2021/08/21 09:47:26;;;;;;;17.80;16.00;;;22.20;99.90;;;;;;5099331;28;20047;-66
2021/08/21 09:50:09;;;;;;;17.35;14.85;;;22.40;99.90;;;;;;5097928;28;20493;-66
2021/08/21 09:52:36;;;;;;;12.77;11.57;;;22.60;99.90;;;;;;5096479;27;20116;-66
2021/08/21 09:55:08;;;;;;;14.70;13.20;;;22.80;99.90;;;;;;5093991;27;20032;-66
2021/08/21 09:57:34;;;;;;;15.13;13.63;;;22.90;99.90;;;;;;5095527;28;20088;-66
2021/08/21 10:00:02;;;;;;;17.70;16.00;;;23.00;99.90;;;;;;5094628;28;20040;-66
2021/08/21 10:02:30;;;;;;;16.40;14.75;;;23.20;99.90;;;;;;5096347;28;20043;-66
2021/08/21 10:04:56;;;;;;;15.25;13.80;;;23.40;99.90;;;;;;5094399;28;20058;-66
2021/08/21 10:07:26;;;;;;;15.30;13.80;;;23.50;99.90;;;;;;5096099;28;20039;-66
2021/08/21 10:09:53;;;;;;;15.25;13.65;;;23.60;99.90;;;;;;5095131;28;20047;-67
2021/08/21 10:12:22;;;;;;;15.68;14.13;;;23.70;99.90;;;;;;5094524;28;20080;-67
2021/08/21 10:14:50;;;;;;;13.90;12.45;;;23.70;99.90;;;;;;5096916;28;20032;-67
2021/08/21 10:17:21;;;;;;;14.70;13.15;;;23.70;99.90;;;;;;5094563;28;20040;-67
2021/08/21 10:19:48;;;;;;;13.77;12.45;;;23.70;99.90;;;;;;5096827;28;20089;-67
2021/08/21 10:22:15;;;;;;;12.45;11.25;;;23.80;99.90;;;;;;5097477;28;20374;-67
2021/08/21 10:24:47;;;;;;;17.67;15.80;;;23.70;99.90;;;;;;5095633;28;20043;-67
2021/08/21 10:27:30;;;;;;;17.40;15.65;;;23.80;99.90;;;;;;5097381;28;20039;-67
2021/08/21 10:30:05;;;;;;;19.17;17.25;;;24.00;99.90;;;;;;5098220;28;20552;-67
2021/08/21 10:32:40;;;;;;;17.58;15.93;;;23.80;99.90;;;;;;5097325;28;20366;-67
2021/08/21 10:35:08;;;;;;;18.03;16.23;;;24.00;99.90;;;;;;5093970;28;20950;-67
2021/08/21 10:37:42;;;;;;;15.48;14.15;;;24.00;99.90;;;;;;5092890;28;20899;-67
2021/08/21 10:40:26;;;;;;;16.02;14.57;;;24.10;99.90;;;;;;5092935;28;20051;-66
2021/08/21 10:42:55;;;;;;;15.07;13.57;;;24.00;99.90;;;;;;5097811;28;20116;-66
2021/08/21 10:45:39;;;;;;;13.82;12.63;;;23.80;99.90;;;;;;5094559;28;20039;-66
2021/08/21 10:48:31;;;;;;;15.02;13.50;;;23.50;99.90;;;;;;5096500;28;20048;-66
2021/08/21 10:50:57;;;;;;;12.38;11.20;;;23.50;99.90;;;;;;5089224;28;20577;-66
2021/08/21 10:53:27;;;;;;;11.88;10.77;;;23.60;99.90;;;;;;5096213;28;20110;-66
2021/08/21 10:55:53;;;;;;;10.45;9.45;;;23.60;99.90;;;;;;5093680;28;20068;-66
2021/08/21 10:58:28;;;;;;;11.93;10.38;;;23.70;99.90;;;;;;5124686;27;20136;-66
2021/08/21 11:01:04;;;;;;;11.63;10.25;;;23.60;99.90;;;;;;5091721;28;20135;-66
2021/08/21 11:03:30;;;;;;;11.52;10.52;;;23.50;99.90;;;;;;5095434;28;20081;-66
2021/08/21 11:06:06;;;;;;;11.65;10.65;;;23.60;99.90;;;;;;5093791;27;20039;-66
2021/08/21 11:08:52;;;;;;;12.15;10.82;;;23.80;99.90;;;;;;5094725;28;20035;-66
2021/08/21 11:11:41;;;;;;;10.27;9.45;;;24.00;99.90;;;;;;5092350;28;20040;-66
2021/08/21 11:14:24;;;;;;;10.60;9.60;;;24.10;99.90;;;;;;5082724;28;20055;-66
2021/08/21 11:16:55;;;;;;;10.45;9.45;;;24.00;99.90;;;;;;5092767;28;20079;-66
2021/08/21 11:19:40;;;;;;;12.43;9.27;;;23.80;99.90;;;;;;5091637;28;20040;-66
2021/08/21 11:22:16;;;;;;;9.13;8.20;;;23.80;99.90;;;;;;5091057;28;20130;-66
2021/08/21 11:24:51;;;;;;;9.40;8.43;;;23.60;99.90;;;;;;5092323;28;20480;-66
2021/08/21 11:27:31;;;;;;;10.27;9.35;;;23.40;99.90;;;;;;5090416;28;20032;-66
2021/08/21 11:30:06;;;;;;;8.57;7.82;;;23.40;99.90;;;;;;5095331;28;20138;-66
2021/08/21 11:32:33;;;;;;;10.55;9.45;;;23.30;99.90;;;;;;5094423;28;20591;-66
2021/08/21 11:34:59;;;;;;;8.32;7.57;;;23.20;99.90;;;;;;5090232;28;20043;-66
2021/08/21 11:37:28;;;;;;;7.70;7.00;;;23.50;99.90;;;;;;5091206;28;20062;-66
2021/08/21 11:39:55;;;;;;;9.20;7.45;;;23.50;99.90;;;;;;5093549;28;20481;-66
2021/08/21 11:42:22;;;;;;;8.60;7.85;;;23.70;99.90;;;;;;5095770;28;20122;-66
2021/08/21 11:44:55;;;;;;;8.38;7.55;;;23.80;99.90;;;;;;5095096;28;20458;-66
2021/08/21 11:47:30;;;;;;;10.45;7.70;;;23.90;99.90;;;;;;5095323;28;20393;-66
2021/08/21 11:49:56;;;;;;;7.45;6.68;;;23.90;99.90;;;;;;5094320;28;20036;-65
2021/08/21 11:52:22;;;;;;;8.90;6.97;;;24.00;99.90;;;;;;5093116;28;20696;-66
2021/08/21 11:54:49;;;;;;;8.25;7.45;;;24.00;99.90;;;;;;5094857;28;20047;-66
2021/08/21 11:57:15;;;;;;;8.98;7.47;;;24.00;99.90;;;;;;5092793;28;20055;-66
2021/08/21 11:59:41;;;;;;;6.97;6.30;;;24.10;99.90;;;;;;5092335;28;20481;-66
2021/08/21 12:02:13;;;;;;;6.65;6.13;;;24.30;99.90;;;;;;5101076;28;20047;-66
2021/08/21 12:04:54;;;;;;;7.63;6.38;;;24.30;99.90;;;;;;5093789;28;20047;-65
2021/08/21 12:07:33;;;;;;;6.25;5.13;;;24.30;99.90;;;;;;5092916;28;20382;-66
2021/08/21 12:09:59;;;;;;;4.10;3.55;;;24.50;99.90;;;;;;5093549;28;20498;-66
2021/08/21 12:12:26;;;;;;;5.15;3.58;;;24.50;99.90;;;;;;5095740;28;20374;-65
2021/08/21 12:14:52;;;;;;;4.10;3.70;;;24.70;99.90;;;;;;5094652;28;20063;-65
2021/08/21 12:17:18;;;;;;;4.18;3.70;;;24.60;99.90;;;;;;5094967;28;20059;-65
2021/08/21 12:19:44;;;;;;;6.03;4.40;;;24.60;99.90;;;;;;5094212;28;20443;-66
2021/08/21 12:22:11;;;;;;;3.88;3.58;;;24.70;99.90;;;;;;5097348;28;20106;-66
2021/08/21 12:24:53;;;;;;;4.38;3.75;;;24.80;99.90;;;;;;5099006;28;20071;-65
2021/08/21 12:27:23;;;;;;;3.67;3.38;;;24.90;99.90;;;;;;5099000;27;20036;-66
2021/08/21 12:30:05;;;;;;;3.78;3.47;;;24.80;99.90;;;;;;5097390;27;20071;-66
2021/08/21 12:32:30;;;;;;;6.80;5.82;;;24.80;99.90;;;;;;5098486;28;20048;-66